»·PEaware :: N7VJ KFMN-KGJT

N7VJ :: KFMN-KGJT

FLIGHT INFORMATION

Flight Status: Arrived
Operator: Privately registered:
United States
More flights under this callsign
Pilot: Anonymous 8799 (8799)
Aircraft: Unknown
(SF50)
More flights by this aircraft type
Origin: KFMN Four Corners Regl
United States
Destination: KGJT Walker
United States
More flights between these airports :: More routes between these airports
Route: +PLATA1 CEZ DVC JNC
File this flight plan on PilotEdge
Remarks:
Altitude:
(Current/Filed)
22,000ft
Speed:
(Current/Filed)
290kts
Departed: 17-Oct-17 06:09 PM
Arrived: 17-Oct-17 06:51 PM
Distance/Time
Traveled:
143nm/0:42
Distance/Time
To Go:
Arrived

Flight Plot

Page will automatically refresh every two minutes.

Flight plan parsing failed; only flown route is shown


Map Options




Map Legend


Flown Route
Filed Route
Departure Airport
Arrival Airport
Navaid (VOR, NDB)
Fix

Horizontal Profiles

Position Reports

Time Latitude Longitude Heading Altitude Ground
Speed
17-Oct-17 17:52 36.739550 -108.230862 213 5492ft 0kts
17-Oct-17 17:53 36.738900 -108.233448 260 5492ft 0kts
17-Oct-17 17:54 36.738784 -108.233911 252 5491ft 7kts
17-Oct-17 17:55 36.737579 -108.236869 237 5482ft 0kts
17-Oct-17 17:56 36.737579 -108.236869 237 5482ft 0kts
17-Oct-17 17:57 36.737579 -108.236869 237 5482ft 0kts
17-Oct-17 17:58 36.737579 -108.236869 237 5482ft 0kts
17-Oct-17 17:59 36.737579 -108.236869 237 5482ft 0kts
17-Oct-17 18:00 36.737579 -108.236869 237 5482ft 0kts
17-Oct-17 18:01 36.737579 -108.236869 237 5482ft 0kts
17-Oct-17 18:02 36.737579 -108.236869 237 5482ft 0kts
17-Oct-17 18:03 36.737579 -108.236869 237 5482ft 0kts
17-Oct-17 18:04 36.737579 -108.236869 237 5482ft 0kts
17-Oct-17 18:05 36.737579 -108.236869 237 5482ft 0kts
17-Oct-17 18:06 36.737576 -108.236897 268 5482ft 0kts
17-Oct-17 18:07 36.739110 -108.234766 65 5491ft 21kts
17-Oct-17 18:08 36.740632 -108.225977 89 5502ft 25kts
17-Oct-17 18:09 36.740788 -108.219097 83 5504ft 0kts
17-Oct-17 18:10 36.740789 -108.219093 83 5504ft 0kts
17-Oct-17 18:11 36.740834 -108.218469 87 5501ft 0kts
17-Oct-17 18:12 36.740834 -108.218469 87 5501ft 0kts
17-Oct-17 18:13 36.740847 -108.218280 83 5499ft 7kts
17-Oct-17 18:14 36.741265 -108.230011 267 5559ft 111kts
17-Oct-17 18:15 36.754009 -108.257983 8 6794ft 142kts
17-Oct-17 18:16 36.798705 -108.245933 7 7476ft 167kts
17-Oct-17 18:17 36.843256 -108.236210 6 8446ft 165kts
17-Oct-17 18:18 36.883528 -108.227896 5 9332ft 163kts
17-Oct-17 18:19 36.926469 -108.228291 329 10348ft 150kts
17-Oct-17 18:20 36.970796 -108.258660 327 11518ft 211kts
17-Oct-17 18:21 37.025170 -108.297557 328 12734ft 246kts
17-Oct-17 18:22 37.083694 -108.339715 329 13887ft 262kts
17-Oct-17 18:23 37.146026 -108.384718 329 15060ft 269kts
17-Oct-17 18:24 37.210924 -108.431686 329 16260ft 270kts
17-Oct-17 18:25 37.275500 -108.478530 328 17452ft 268kts
17-Oct-17 18:26 37.337685 -108.523729 328 18608ft 264kts
17-Oct-17 18:27 37.399906 -108.570715 324 19787ft 260kts
17-Oct-17 18:28 37.458680 -108.622086 323 20969ft 255kts
17-Oct-17 18:29 37.515947 -108.672413 322 22018ft 255kts
17-Oct-17 18:30 37.576581 -108.725815 322 22290ft 275kts
17-Oct-17 18:31 37.640090 -108.781858 323 22298ft 292kts
17-Oct-17 18:32 37.707722 -108.841661 323 22312ft 299kts
17-Oct-17 18:33 37.776054 -108.902223 323 22336ft 299kts
17-Oct-17 18:34 37.852011 -108.925602 359 22329ft 302kts
17-Oct-17 18:35 37.935397 -108.917385 0 22310ft 300kts
17-Oct-17 18:36 38.017952 -108.908382 0 22309ft 298kts
17-Oct-17 18:37 38.100271 -108.899357 1 22310ft 305kts
17-Oct-17 18:38 38.178488 -108.890754 1 22313ft 309kts
17-Oct-17 18:39 38.263468 -108.881372 1 21841ft 295kts
17-Oct-17 18:40 38.343753 -108.872526 1 20844ft 289kts
17-Oct-17 18:41 38.423196 -108.863734 1 19849ft 286kts
17-Oct-17 18:42 38.501923 -108.854999 1 18858ft 285kts
17-Oct-17 18:43 38.581366 -108.846170 2 17729ft 288kts
17-Oct-17 18:44 38.661384 -108.837249 2 16535ft 290kts
17-Oct-17 18:45 38.741834 -108.828263 3 15339ft 290kts
17-Oct-17 18:46 38.805126 -108.792767 49 14936ft 257kts
17-Oct-17 18:47 38.851296 -108.717765 49 13760ft 281kts
17-Oct-17 18:48 38.898390 -108.642500 49 12545ft 251kts
17-Oct-17 18:49 38.938241 -108.578863 49 12223ft 210kts
17-Oct-17 18:50 38.973521 -108.522491 49 12232ft 203kts
17-Oct-17 18:51 39.010531 -108.464465 51 12235ft 215kts
17-Oct-17 18:52 39.072978 -108.439158 350 9139ft 243kts
17-Oct-17 18:53 39.091621 -108.436452 192 7475ft 194kts
17-Oct-17 18:54 39.098679 -108.478517 305 5779ft 99kts
17-Oct-17 18:55 39.114275 -108.506693 302 5052ft 93kts
17-Oct-17 18:56 39.122459 -108.523557 224 4804ft 0kts
17-Oct-17 18:57 39.120864 -108.523116 157 4804ft 0kts
17-Oct-17 18:58 39.120864 -108.523116 157 4804ft 0kts
17-Oct-17 18:59 39.120862 -108.523115 157 4804ft 0kts
17-Oct-17 19:00 39.120862 -108.523115 157 4804ft 0kts
17-Oct-17 19:01 39.120862 -108.523115 157 4804ft 0kts

Navigation Log

Ident Type
Flight plan parsing failed, navigation log unavailable